Time;durP1;ratioP1;P1;durP2;ratioP2;P2;SDS_P1;SDS_P2;PMS_P1;PMS_P2;Temp;Humidity;BMP_temperature;BMP_pressure;BME280_temperature;BME280_humidity;BME280_pressure;Samples;Min_cycle;Max_cycle;Signal;HPM_P1;HPM_P2
2023/09/18 00:01:19;;;;;;;8.88;8.07;;;19.40;83.40;;;;;;5047659;28;20032;-69
2023/09/18 00:03:45;;;;;;;9.52;8.73;;;19.40;83.40;;;;;;5058061;28;20048;-70
2023/09/18 00:06:11;;;;;;;9.35;8.55;;;19.40;83.40;;;;;;5058044;28;20098;-70
2023/09/18 00:08:39;;;;;;;10.30;8.80;;;19.40;83.50;;;;;;5056354;28;20042;-70
2023/09/18 00:11:06;;;;;;;9.52;8.65;;;19.40;83.50;;;;;;5060025;28;20070;-70
2023/09/18 00:13:32;;;;;;;9.10;8.20;;;19.40;83.50;;;;;;5059661;28;20551;-69
2023/09/18 00:15:59;;;;;;;9.00;8.20;;;19.40;83.50;;;;;;5054397;28;20035;-68
2023/09/18 00:18:25;;;;;;;8.50;7.72;;;19.40;83.50;;;;;;5055162;28;20549;-69
2023/09/18 00:20:51;;;;;;;8.88;8.05;;;19.40;83.60;;;;;;5055547;28;20032;-69
2023/09/18 00:23:17;;;;;;;9.30;8.35;;;19.40;83.50;;;;;;5059726;28;20039;-70
2023/09/18 00:25:44;;;;;;;9.73;8.90;;;19.40;83.50;;;;;;5054272;28;20041;-69
2023/09/18 00:28:10;;;;;;;9.07;8.27;;;19.40;83.50;;;;;;5059424;28;20036;-70
2023/09/18 00:30:42;;;;;;;9.07;8.35;;;19.40;83.50;;;;;;5058405;28;20045;-69
2023/09/18 00:33:08;;;;;;;10.07;8.68;;;19.40;83.50;;;;;;5054552;28;20044;-71
2023/09/18 00:35:34;;;;;;;9.82;8.82;;;19.30;83.40;;;;;;5058447;28;20401;-70
2023/09/18 00:38:03;;;;;;;8.80;7.97;;;19.30;83.40;;;;;;5053614;28;20538;-71
2023/09/18 00:40:29;;;;;;;9.27;8.48;;;19.30;83.40;;;;;;5056952;28;20037;-71
2023/09/18 00:42:55;;;;;;;10.57;9.57;;;19.30;83.50;;;;;;5059469;28;20071;-71
2023/09/18 00:45:21;;;;;;;10.65;9.10;;;19.20;83.30;;;;;;5039578;28;20191;-71
2023/09/18 00:47:50;;;;;;;12.00;8.93;;;19.20;83.40;;;;;;5056452;28;20039;-71
2023/09/18 00:50:16;;;;;;;9.90;8.90;;;19.20;83.50;;;;;;5056528;28;20135;-71
2023/09/18 00:52:43;;;;;;;10.45;9.45;;;19.10;83.30;;;;;;5059053;28;20112;-72
2023/09/18 00:55:09;;;;;;;10.65;9.85;;;19.10;83.30;;;;;;5062005;28;20503;-71
2023/09/18 00:57:35;;;;;;;11.63;10.48;;;19.10;83.30;;;;;;5061985;28;20040;-72
2023/09/18 01:00:05;;;;;;;10.50;9.40;;;19.10;83.40;;;;;;5063020;28;20051;-70
2023/09/18 01:02:31;;;;;;;10.73;9.73;;;19.00;83.30;;;;;;5058574;28;20105;-70
2023/09/18 01:04:58;;;;;;;12.38;10.55;;;19.10;83.50;;;;;;5061672;28;20492;-70
2023/09/18 01:07:23;;;;;;;10.75;9.80;;;19.00;83.30;;;;;;5062346;28;20392;-70
2023/09/18 01:09:50;;;;;;;10.85;9.73;;;19.00;83.30;;;;;;5062189;28;20107;-71
2023/09/18 01:12:38;;;;;;;11.63;10.68;;;19.00;83.30;;;;;;5057688;28;20033;-71
2023/09/18 01:15:17;;;;;;;10.60;9.60;;;19.00;83.40;;;;;;5058749;28;20492;-70
2023/09/18 01:17:44;;;;;;;9.98;8.98;;;19.00;83.40;;;;;;5060721;28;20032;-69
2023/09/18 01:20:11;;;;;;;11.40;10.25;;;18.90;83.10;;;;;;5062241;28;20032;-69
2023/09/18 01:22:37;;;;;;;11.13;10.13;;;19.00;83.40;;;;;;5063339;28;20029;-71
2023/09/18 01:25:04;;;;;;;10.65;9.68;;;19.00;83.40;;;;;;5061347;28;20069;-71
2023/09/18 01:27:30;;;;;;;10.85;9.85;;;18.90;83.20;;;;;;5063166;28;20033;-71
2023/09/18 01:29:56;;;;;;;11.35;10.25;;;18.90;83.20;;;;;;5062887;28;20043;-70
2023/09/18 01:32:26;;;;;;;10.77;9.88;;;18.90;83.20;;;;;;5060897;28;20033;-71
2023/09/18 01:34:54;;;;;;;11.38;10.25;;;18.90;83.20;;;;;;5054509;28;20032;-70
2023/09/18 01:37:25;;;;;;;11.30;10.30;;;18.90;83.20;;;;;;5061238;28;20868;-70
2023/09/18 01:39:53;;;;;;;12.77;10.13;;;18.90;83.30;;;;;;5054791;28;20056;-72
2023/09/18 01:42:19;;;;;;;11.25;10.30;;;18.90;83.30;;;;;;5063263;28;20115;-71
2023/09/18 01:44:47;;;;;;;12.20;11.00;;;18.80;83.10;;;;;;5059857;28;20041;-70
2023/09/18 01:47:17;;;;;;;10.52;9.65;;;18.80;83.10;;;;;;5063171;28;20722;-70
2023/09/18 01:49:43;;;;;;;10.73;9.73;;;18.80;83.10;;;;;;5063230;28;20086;-69
2023/09/18 01:52:10;;;;;;;11.13;10.13;;;18.80;83.10;;;;;;5051323;28;20090;-69
2023/09/18 01:54:36;;;;;;;10.95;9.85;;;18.70;83.00;;;;;;5058704;28;20523;-70
2023/09/18 01:57:02;;;;;;;10.98;9.70;;;18.70;83.00;;;;;;5060358;28;20032;-69
2023/09/18 01:59:29;;;;;;;11.77;10.77;;;18.70;83.00;;;;;;5059407;28;20028;-72
2023/09/18 02:01:55;;;;;;;12.93;11.10;;;18.70;83.00;;;;;;5047774;28;20135;-70
2023/09/18 02:04:22;;;;;;;10.95;10.05;;;18.60;82.90;;;;;;5056815;28;20513;-70
2023/09/18 02:06:50;;;;;;;10.10;9.30;;;18.60;82.90;;;;;;5058574;28;20063;-72
2023/09/18 02:09:17;;;;;;;10.98;9.93;;;18.60;83.00;;;;;;5055644;28;20056;-70
2023/09/18 02:11:44;;;;;;;11.90;10.80;;;18.60;83.00;;;;;;5058498;28;20396;-69
2023/09/18 02:14:11;;;;;;;11.20;10.20;;;18.60;83.00;;;;;;5058002;28;20036;-70
2023/09/18 02:16:43;;;;;;;10.73;9.82;;;18.60;83.00;;;;;;5054975;28;20347;-71
2023/09/18 02:19:17;;;;;;;11.43;10.43;;;18.50;82.80;;;;;;5056255;28;20376;-72
2023/09/18 02:21:43;;;;;;;11.43;10.30;;;18.50;82.80;;;;;;5056457;28;20448;-71
2023/09/18 02:24:09;;;;;;;11.05;10.05;;;18.50;82.80;;;;;;5059114;28;20067;-69
2023/09/18 02:26:36;;;;;;;11.63;10.57;;;18.50;82.90;;;;;;5054679;28;20049;-70
2023/09/18 02:29:11;;;;;;;11.88;10.77;;;18.40;82.70;;;;;;5058029;28;20032;-71
2023/09/18 02:31:37;;;;;;;11.43;10.43;;;18.40;82.80;;;;;;5060096;28;20036;-70
2023/09/18 02:34:03;;;;;;;11.43;10.25;;;18.40;82.80;;;;;;5054935;28;20124;-70
2023/09/18 02:36:29;;;;;;;10.95;9.85;;;18.40;82.80;;;;;;5057209;28;20075;-70
2023/09/18 02:38:55;;;;;;;12.50;11.35;;;18.40;82.80;;;;;;5058711;28;20158;-70
2023/09/18 02:41:21;;;;;;;11.35;10.35;;;18.40;82.90;;;;;;5059976;28;20031;-74
2023/09/18 02:43:48;;;;;;;10.70;9.80;;;18.30;82.80;;;;;;5055296;28;20465;-70
2023/09/18 02:46:14;;;;;;;11.57;10.50;;;18.30;82.80;;;;;;5063958;28;20036;-71
2023/09/18 02:48:39;;;;;;;10.77;9.88;;;18.30;82.80;;;;;;5065156;28;20142;-71
2023/09/18 02:51:06;;;;;;;11.57;10.45;;;18.30;82.80;;;;;;5045778;28;20240;-72
2023/09/18 02:53:32;;;;;;;13.52;11.88;;;18.20;82.70;;;;;;5057657;28;20075;-71
2023/09/18 02:55:59;;;;;;;12.75;11.45;;;18.20;82.70;;;;;;5069416;28;20040;-70
2023/09/18 02:58:28;;;;;;;11.43;10.43;;;18.20;82.70;;;;;;5060434;28;20059;-70
2023/09/18 03:00:59;;;;;;;11.77;10.55;;;18.20;82.70;;;;;;5050365;28;20032;-70
2023/09/18 03:03:26;;;;;;;12.27;11.23;;;18.10;83.00;;;;;;5061537;28;20147;-70
2023/09/18 03:05:52;;;;;;;12.15;10.93;;;18.20;82.70;;;;;;5058407;28;20074;-71
2023/09/18 03:08:18;;;;;;;10.95;10.05;;;18.10;82.60;;;;;;5052257;28;20155;-69
2023/09/18 03:10:45;;;;;;;10.65;9.73;;;18.10;82.60;;;;;;5060834;28;20208;-74
2023/09/18 03:13:14;;;;;;;11.95;10.73;;;18.00;82.40;;;;;;5052214;28;20116;-71
2023/09/18 03:15:44;;;;;;;11.90;10.80;;;18.00;82.40;;;;;;5048228;28;20028;-71
2023/09/18 03:18:09;;;;;;;12.20;10.85;;;18.00;82.40;;;;;;5060490;28;20085;-69
2023/09/18 03:20:37;;;;;;;11.40;10.35;;;18.00;82.50;;;;;;5061301;28;20033;-69
2023/09/18 03:23:04;;;;;;;11.27;10.05;;;18.00;82.50;;;;;;5060524;28;20112;-70
2023/09/18 03:25:30;;;;;;;11.13;9.57;;;17.90;82.30;;;;;;5061280;28;20041;-69
2023/09/18 03:27:57;;;;;;;10.10;9.23;;;17.90;82.40;;;;;;5060378;28;20021;-70
2023/09/18 03:30:28;;;;;;;10.15;9.35;;;17.80;82.20;;;;;;5058132;28;20040;-70
2023/09/18 03:32:54;;;;;;;10.75;9.65;;;17.80;82.20;;;;;;5060959;28;20122;-70
2023/09/18 03:35:21;;;;;;;10.02;9.20;;;17.80;82.30;;;;;;5060479;28;20373;-70
2023/09/18 03:37:50;;;;;;;10.43;9.40;;;17.80;82.30;;;;;;5061012;28;20047;-70
2023/09/18 03:40:18;;;;;;;10.00;9.18;;;17.80;82.30;;;;;;5059115;28;20068;-69
2023/09/18 03:42:47;;;;;;;9.85;8.95;;;17.70;82.20;;;;;;5061500;28;20037;-68
2023/09/18 03:45:13;;;;;;;10.07;8.98;;;17.70;82.20;;;;;;5052274;28;20052;-70
2023/09/18 03:47:41;;;;;;;10.27;9.27;;;17.70;82.30;;;;;;5058423;28;20037;-68
2023/09/18 03:50:09;;;;;;;10.65;8.43;;;17.60;82.10;;;;;;5053381;28;20479;-69
2023/09/18 03:52:36;;;;;;;9.45;8.65;;;17.60;82.10;;;;;;5048962;28;20433;-71
2023/09/18 03:55:02;;;;;;;9.02;8.23;;;17.60;82.20;;;;;;5035244;28;20494;-69
2023/09/18 03:57:28;;;;;;;10.68;9.00;;;17.60;82.20;;;;;;5059602;28;20032;-70
2023/09/18 03:59:54;;;;;;;8.95;8.15;;;17.60;82.30;;;;;;5053796;28;20025;-70
2023/09/18 04:02:23;;;;;;;8.25;7.55;;;17.50;82.10;;;;;;5055959;28;20505;-70
2023/09/18 04:04:51;;;;;;;8.93;7.40;;;17.50;82.10;;;;;;5050363;28;20090;-73
2023/09/18 04:07:19;;;;;;;7.47;6.78;;;17.50;82.10;;;;;;5054317;28;20400;-70
2023/09/18 04:09:46;;;;;;;7.07;6.38;;;17.50;82.10;;;;;;5052445;28;20063;-70
2023/09/18 04:12:12;;;;;;;8.45;7.05;;;17.50;82.10;;;;;;5055174;28;20036;-71
2023/09/18 04:14:38;;;;;;;7.88;6.43;;;17.40;82.00;;;;;;5044825;28;20029;-71
2023/09/18 04:17:05;;;;;;;6.80;6.18;;;17.40;82.00;;;;;;5055831;28;20017;-74
2023/09/18 04:19:31;;;;;;;5.50;5.00;;;17.40;82.00;;;;;;5059959;28;20028;-71
2023/09/18 04:21:58;;;;;;;6.30;5.68;;;17.40;82.00;;;;;;5053287;28;20793;-69
2023/09/18 04:24:26;;;;;;;6.57;5.10;;;17.30;81.80;;;;;;5054865;28;20045;-68
2023/09/18 04:26:52;;;;;;;5.97;5.38;;;17.30;81.80;;;;;;5053783;28;20062;-70
2023/09/18 04:29:19;;;;;;;5.88;4.90;;;17.30;81.80;;;;;;5052541;28;20072;-69
2023/09/18 04:31:46;;;;;;;6.00;5.40;;;17.20;82.20;;;;;;5050877;28;21756;-70
2023/09/18 04:34:14;;;;;;;5.57;5.07;;;17.20;81.70;;;;;;5053400;28;20052;-70
2023/09/18 04:36:40;;;;;;;4.88;4.45;;;17.20;81.60;;;;;;5055802;28;20124;-71
2023/09/18 04:39:07;;;;;;;4.68;4.00;;;17.20;82.20;;;;;;5050523;28;20576;-70
2023/09/18 04:41:33;;;;;;;4.97;4.40;;;17.10;81.50;;;;;;5054553;28;20654;-69
2023/09/18 04:44:00;;;;;;;4.60;4.20;;;17.10;81.50;;;;;;5049821;28;20033;-69
2023/09/18 04:46:29;;;;;;;4.63;4.22;;;17.10;81.50;;;;;;5052072;28;20124;-69
2023/09/18 04:48:55;;;;;;;4.75;4.10;;;17.00;81.30;;;;;;5049444;28;20032;-70
2023/09/18 04:51:21;;;;;;;4.55;3.95;;;17.00;81.30;;;;;;5056948;28;20036;-70
2023/09/18 04:53:47;;;;;;;3.85;3.55;;;17.00;81.30;;;;;;5055387;28;20033;-70
2023/09/18 04:56:14;;;;;;;5.05;4.63;;;17.00;81.30;;;;;;5052979;28;20075;-70
2023/09/18 04:58:40;;;;;;;4.30;4.00;;;16.90;81.10;;;;;;5056645;28;20257;-68
2023/09/18 05:01:06;;;;;;;4.97;4.47;;;16.90;81.10;;;;;;5056593;28;20439;-68
2023/09/18 05:03:34;;;;;;;4.03;3.63;;;16.90;81.20;;;;;;5055683;28;20044;-68
2023/09/18 05:06:00;;;;;;;6.55;4.00;;;16.90;81.20;;;;;;5055702;28;20113;-69
2023/09/18 05:08:27;;;;;;;5.15;4.65;;;16.80;81.00;;;;;;5057887;28;20034;-70
2023/09/18 05:10:53;;;;;;;5.03;4.60;;;16.80;81.00;;;;;;5056152;28;20037;-70
2023/09/18 05:13:19;;;;;;;5.03;4.25;;;16.70;80.90;;;;;;5058693;28;20372;-68
2023/09/18 05:15:45;;;;;;;4.35;3.95;;;16.70;80.90;;;;;;5057785;28;20050;-68
2023/09/18 05:18:11;;;;;;;5.88;4.75;;;16.70;80.90;;;;;;5057015;28;20032;-69
2023/09/18 05:20:37;;;;;;;5.18;4.72;;;16.70;81.00;;;;;;5057290;28;20036;-71
2023/09/18 05:23:03;;;;;;;4.60;4.20;;;16.60;80.80;;;;;;5057678;28;20029;-70
2023/09/18 05:25:31;;;;;;;4.20;3.80;;;16.60;80.80;;;;;;5058878;28;20039;-69
2023/09/18 05:27:59;;;;;;;5.70;4.63;;;16.60;80.80;;;;;;5056452;28;20099;-70
2023/09/18 05:30:34;;;;;;;4.55;4.15;;;16.60;80.80;;;;;;5057796;28;20809;-70
2023/09/18 05:33:04;;;;;;;5.30;4.80;;;16.50;80.70;;;;;;5058573;28;20032;-69
2023/09/18 05:35:41;;;;;;;8.43;4.70;;;16.50;81.20;;;;;;5058554;28;20488;-71
2023/09/18 05:38:09;;;;;;;5.18;4.78;;;16.50;80.60;;;;;;5059229;28;20075;-68
2023/09/18 05:40:35;;;;;;;4.93;4.53;;;16.50;80.60;;;;;;5063099;28;20305;-70
2023/09/18 05:43:02;;;;;;;5.32;4.93;;;16.40;80.50;;;;;;5062884;28;20500;-71
2023/09/18 05:45:28;;;;;;;5.20;4.70;;;16.40;80.50;;;;;;5053248;28;20040;-69
2023/09/18 05:48:01;;;;;;;4.97;4.20;;;16.40;80.50;;;;;;5052147;28;20035;-70
2023/09/18 05:50:29;;;;;;;4.35;4.00;;;16.40;80.50;;;;;;5060865;28;20427;-69
2023/09/18 05:52:59;;;;;;;5.30;4.63;;;16.30;80.30;;;;;;5057262;28;20050;-71
2023/09/18 05:55:26;;;;;;;5.47;4.97;;;16.30;80.90;;;;;;5058961;28;20033;-70
2023/09/18 05:57:53;;;;;;;5.00;4.20;;;16.30;80.40;;;;;;5060086;28;20067;-73
2023/09/18 06:00:19;;;;;;;5.75;4.57;;;16.30;80.40;;;;;;5062823;28;20629;-72
2023/09/18 06:02:45;;;;;;;5.60;5.10;;;16.30;80.30;;;;;;5051224;28;20040;-70
2023/09/18 06:05:11;;;;;;;4.47;4.07;;;16.30;80.30;;;;;;5062408;28;20067;-68
2023/09/18 06:07:38;;;;;;;5.18;4.68;;;16.30;80.30;;;;;;5055500;28;20229;-70
2023/09/18 06:10:05;;;;;;;5.80;4.60;;;16.20;80.10;;;;;;5058818;28;20119;-69
2023/09/18 06:12:31;;;;;;;5.88;5.38;;;16.20;80.10;;;;;;5054218;28;20266;-70
2023/09/18 06:14:57;;;;;;;4.93;4.53;;;16.20;80.20;;;;;;5054456;28;20539;-70
2023/09/18 06:17:24;;;;;;;5.00;4.60;;;16.20;80.20;;;;;;5059050;28;20519;-72
2023/09/18 06:19:50;;;;;;;5.30;4.82;;;16.20;80.30;;;;;;5055489;28;20024;-70
2023/09/18 06:22:16;;;;;;;5.30;4.90;;;16.20;80.30;;;;;;5055559;28;20772;-71
2023/09/18 06:24:43;;;;;;;5.43;4.80;;;16.20;80.30;;;;;;5055805;28;20051;-70
2023/09/18 06:27:09;;;;;;;4.70;4.25;;;16.20;80.20;;;;;;5059606;28;20033;-70
2023/09/18 06:29:37;;;;;;;4.78;4.38;;;16.30;80.40;;;;;;5059463;28;20040;-71
2023/09/18 06:32:03;;;;;;;4.85;4.10;;;16.30;80.30;;;;;;5059355;28;20082;-69
2023/09/18 06:34:29;;;;;;;6.30;4.65;;;16.30;80.30;;;;;;5058332;28;20038;-69
2023/09/18 06:36:56;;;;;;;4.15;3.75;;;16.30;80.30;;;;;;5058865;28;20043;-68
2023/09/18 06:39:23;;;;;;;5.30;4.80;;;16.30;80.20;;;;;;5055715;28;20049;-69
2023/09/18 06:41:50;;;;;;;4.93;3.58;;;16.40;80.30;;;;;;5066775;28;20119;-69
2023/09/18 06:44:18;;;;;;;6.10;3.88;;;16.40;80.30;;;;;;5054828;28;20942;-69
2023/09/18 06:46:45;;;;;;;4.47;4.07;;;16.40;80.70;;;;;;5054623;28;20191;-70
2023/09/18 06:49:11;;;;;;;3.60;3.30;;;16.50;80.30;;;;;;5055209;28;20029;-70
2023/09/18 06:51:37;;;;;;;5.55;3.40;;;16.60;80.30;;;;;;5055443;28;20036;-69
2023/09/18 06:54:03;;;;;;;3.88;3.17;;;16.70;80.40;;;;;;5054404;28;20032;-69
2023/09/18 06:56:29;;;;;;;3.75;3.22;;;16.80;80.40;;;;;;5050602;28;20392;-68
2023/09/18 06:58:55;;;;;;;5.57;3.22;;;16.90;80.40;;;;;;5059035;28;20099;-72
2023/09/18 07:01:24;;;;;;;3.88;3.13;;;16.90;80.20;;;;;;5051530;28;20087;-69
2023/09/18 07:03:50;;;;;;;4.78;2.95;;;17.00;80.20;;;;;;5058927;28;20097;-69
2023/09/18 07:06:28;;;;;;;4.63;3.00;;;17.10;80.30;;;;;;5050911;28;20039;-70
2023/09/18 07:08:54;;;;;;;3.15;2.85;;;17.20;80.40;;;;;;5058791;28;20311;-71
2023/09/18 07:11:20;;;;;;;4.68;3.50;;;17.20;80.30;;;;;;5057316;28;20127;-70
2023/09/18 07:13:46;;;;;;;4.25;3.10;;;17.20;80.20;;;;;;5057945;28;20485;-70
2023/09/18 07:16:13;;;;;;;4.90;2.63;;;17.30;80.50;;;;;;5053817;28;20040;-70
2023/09/18 07:18:39;;;;;;;4.15;3.03;;;17.30;80.60;;;;;;5055021;28;20032;-70
2023/09/18 07:21:05;;;;;;;4.20;2.95;;;17.30;80.70;;;;;;5058346;28;20025;-70
2023/09/18 07:23:31;;;;;;;4.35;2.85;;;17.40;80.90;;;;;;5054279;28;20032;-70
2023/09/18 07:25:59;;;;;;;7.38;3.10;;;17.40;81.10;;;;;;5057893;28;20136;-70
2023/09/18 07:28:25;;;;;;;5.63;2.88;;;17.40;81.30;;;;;;5058531;28;20043;-70
2023/09/18 07:30:51;;;;;;;6.43;3.47;;;17.50;81.50;;;;;;5046567;28;20032;-70
2023/09/18 07:33:19;;;;;;;7.93;2.83;;;17.60;81.70;;;;;;5058875;28;20028;-70
2023/09/18 07:35:51;;;;;;;7.25;3.00;;;17.70;81.90;;;;;;5056318;28;20040;-69
2023/09/18 07:38:19;;;;;;;7.35;3.58;;;17.70;82.00;;;;;;5057693;28;20087;-70
2023/09/18 07:40:47;;;;;;;6.38;3.38;;;17.80;82.00;;;;;;5056239;28;20033;-70
2023/09/18 07:43:13;;;;;;;11.77;3.22;;;17.90;82.20;;;;;;5058132;28;20032;-70
2023/09/18 07:45:39;;;;;;;6.47;3.55;;;17.90;82.20;;;;;;5054798;28;20096;-70
2023/09/18 07:48:08;;;;;;;9.23;3.45;;;17.90;82.30;;;;;;5053947;28;20560;-70
2023/09/18 07:50:37;;;;;;;8.75;2.90;;;17.90;82.30;;;;;;5055112;28;20059;-70
2023/09/18 07:53:03;;;;;;;6.00;2.78;;;18.00;82.70;;;;;;5051176;28;20061;-70
2023/09/18 07:55:29;;;;;;;6.07;3.47;;;18.00;82.70;;;;;;5055193;28;20131;-69
2023/09/18 07:57:56;;;;;;;6.25;3.33;;;18.00;82.80;;;;;;5057336;28;20126;-69
2023/09/18 08:00:22;;;;;;;4.55;3.30;;;18.00;82.90;;;;;;5052320;28;20036;-70
2023/09/18 08:02:50;;;;;;;9.48;2.95;;;18.00;83.00;;;;;;5046170;28;20036;-70
2023/09/18 08:05:17;;;;;;;6.25;3.00;;;18.00;83.00;;;;;;5052682;28;20397;-70
2023/09/18 08:07:42;;;;;;;6.30;3.13;;;18.10;83.20;;;;;;5054005;28;20024;-70
2023/09/18 08:10:09;;;;;;;6.80;2.80;;;18.10;83.20;;;;;;5054101;28;20043;-70
2023/09/18 08:12:35;;;;;;;7.07;2.72;;;18.10;83.20;;;;;;5046741;28;20037;-70
2023/09/18 08:15:02;;;;;;;4.47;2.67;;;18.20;83.40;;;;;;5047582;28;20447;-70
2023/09/18 08:17:28;;;;;;;5.47;2.63;;;18.20;83.40;;;;;;5053214;28;20064;-71
2023/09/18 08:19:55;;;;;;;5.90;2.13;;;18.30;83.60;;;;;;5052298;28;20021;-72
2023/09/18 08:22:27;;;;;;;4.13;1.98;;;18.30;83.60;;;;;;5051204;28;20325;-70
2023/09/18 08:24:53;;;;;;;4.78;1.98;;;18.30;83.60;;;;;;5054111;28;20032;-70
2023/09/18 08:27:19;;;;;;;4.90;2.17;;;18.30;83.60;;;;;;5056460;28;20097;-69
2023/09/18 08:29:48;;;;;;;3.97;2.33;;;18.30;83.60;;;;;;5051475;28;20032;-70
2023/09/18 08:32:14;;;;;;;3.08;2.15;;;18.30;83.70;;;;;;5044563;28;20029;-70
2023/09/18 08:34:40;;;;;;;2.92;1.83;;;18.30;83.70;;;;;;5051606;28;20151;-71
2023/09/18 08:37:06;;;;;;;4.32;2.17;;;18.30;83.80;;;;;;5053081;28;20070;-70
2023/09/18 08:39:32;;;;;;;3.03;1.73;;;18.30;83.80;;;;;;5053266;28;20052;-70
2023/09/18 08:42:04;;;;;;;3.20;1.90;;;18.40;83.90;;;;;;5055369;28;20024;-70
2023/09/18 08:44:31;;;;;;;3.97;2.05;;;18.50;84.00;;;;;;5048851;28;20818;-70
2023/09/18 08:46:57;;;;;;;3.40;1.88;;;18.50;83.90;;;;;;5052490;28;20090;-70
2023/09/18 08:49:28;;;;;;;3.05;2.38;;;18.70;84.00;;;;;;5052149;28;20044;-70
2023/09/18 08:51:56;;;;;;;3.63;1.92;;;18.80;83.90;;;;;;5045418;28;20322;-72
2023/09/18 08:54:25;;;;;;;2.85;1.85;;;18.90;83.80;;;;;;5050077;28;20043;-70
2023/09/18 08:56:53;;;;;;;4.20;1.83;;;19.00;83.60;;;;;;5048554;28;20028;-70
2023/09/18 08:59:25;;;;;;;;;;;19.20;83.50;;;;;;5053220;28;20033;-71
2023/09/18 09:01:51;;;;;;;3.50;1.67;;;19.40;83.30;;;;;;5064965;28;20003;-70
2023/09/18 09:04:18;;;;;;;8.45;3.30;;;19.50;83.00;;;;;;5051469;28;20051;-70
2023/09/18 09:06:44;;;;;;;3.63;1.80;;;19.60;82.90;;;;;;5053719;28;20028;-70
2023/09/18 09:09:12;;;;;;;2.88;1.90;;;19.70;82.90;;;;;;5056046;28;20033;-69
2023/09/18 09:11:39;;;;;;;3.08;1.23;;;19.80;82.70;;;;;;5051688;28;20040;-70
2023/09/18 09:14:17;;;;;;;4.13;1.58;;;19.90;82.60;;;;;;5057168;28;20076;-70
2023/09/18 09:16:50;;;;;;;4.18;1.88;;;19.90;82.60;;;;;;5058050;28;20464;-70
2023/09/18 09:19:17;;;;;;;;;;;19.90;82.50;;;;;;5055123;28;20345;-71
2023/09/18 09:21:44;;;;;;;2.78;1.48;;;19.90;82.40;;;;;;5052919;28;19913;-70
2023/09/18 09:24:14;;;;;;;3.30;1.40;;;19.90;82.20;;;;;;5058328;28;20056;-69
2023/09/18 09:26:41;;;;;;;3.22;1.48;;;20.00;82.40;;;;;;5050685;28;20503;-70
2023/09/18 09:29:20;;;;;;;1.98;1.27;;;19.90;82.20;;;;;;5058026;28;20028;-70
2023/09/18 09:31:50;;;;;;;2.03;1.55;;;19.90;82.30;;;;;;5051664;28;20107;-70
2023/09/18 09:34:27;;;;;;;1.92;1.40;;;20.00;82.30;;;;;;5057294;28;20340;-70
2023/09/18 09:36:54;;;;;;;4.05;1.27;;;20.10;82.30;;;;;;5053398;28;20055;-70
2023/09/18 09:39:24;;;;;;;2.25;1.30;;;20.10;82.10;;;;;;5055296;28;20546;-70
2023/09/18 09:41:52;;;;;;;5.60;2.13;;;20.20;82.00;;;;;;5056411;28;20024;-70
2023/09/18 09:44:23;;;;;;;4.45;1.50;;;20.10;81.80;;;;;;5047600;28;20052;-70
2023/09/18 09:46:51;;;;;;;1.73;1.10;;;20.10;81.80;;;;;;5053228;28;20579;-70
2023/09/18 09:49:20;;;;;;;1.80;1.60;;;20.10;81.90;;;;;;5056146;28;20032;-70
2023/09/18 09:51:46;;;;;;;2.08;1.85;;;20.10;81.80;;;;;;5057015;28;20032;-69
2023/09/18 09:54:13;;;;;;;3.45;1.58;;;20.20;82.00;;;;;;5053928;28;20079;-69
2023/09/18 09:56:41;;;;;;;2.35;1.52;;;20.20;82.00;;;;;;5054529;28;20043;-69
2023/09/18 09:59:08;;;;;;;3.40;1.85;;;20.30;82.10;;;;;;5052740;28;20052;-69
2023/09/18 10:01:35;;;;;;;2.08;1.45;;;20.30;81.90;;;;;;5035512;28;20032;-70
2023/09/18 10:04:07;;;;;;;1.98;1.17;;;20.50;81.90;;;;;;5057377;28;20551;-70
2023/09/18 10:06:35;;;;;;;2.90;1.25;;;20.60;81.50;;;;;;5054084;28;20040;-69
2023/09/18 10:09:05;;;;;;;1.95;1.35;;;20.70;81.40;;;;;;5054614;28;20043;-69
2023/09/18 10:11:40;;;;;;;3.00;1.25;;;20.70;81.30;;;;;;5053573;28;20036;-69
2023/09/18 10:14:16;;;;;;;2.90;1.27;;;20.70;81.30;;;;;;5051737;28;20040;-69
2023/09/18 10:16:48;;;;;;;3.88;0.90;;;20.70;81.20;;;;;;5053963;28;20069;-69
2023/09/18 10:19:25;;;;;;;2.63;1.35;;;20.70;81.10;;;;;;5054546;28;20385;-70
2023/09/18 10:22:00;;;;;;;2.22;1.17;;;20.80;81.20;;;;;;5055394;28;20446;-69
2023/09/18 10:24:37;;;;;;;2.30;1.08;;;20.80;81.10;;;;;;5053416;28;20044;-70
2023/09/18 10:27:06;;;;;;;2.90;1.00;;;20.90;81.00;;;;;;5056947;28;20384;-70
2023/09/18 10:29:36;;;;;;;3.42;1.02;;;21.10;81.00;;;;;;5053990;28;20051;-70
2023/09/18 10:32:13;;;;;;;2.80;1.88;;;21.20;80.60;;;;;;5057550;28;20028;-70
2023/09/18 10:34:41;;;;;;;2.95;1.90;;;21.30;80.30;;;;;;5053081;28;20040;-70
2023/09/18 10:37:09;;;;;;;4.15;2.00;;;21.40;80.20;;;;;;5056207;28;20063;-70
2023/09/18 10:39:39;;;;;;;3.30;2.30;;;21.60;80.20;;;;;;5049749;28;20045;-70
2023/09/18 10:42:08;;;;;;;6.20;3.15;;;21.70;80.00;;;;;;5057391;28;20029;-70
2023/09/18 10:44:35;;;;;;;2.78;2.58;;;21.80;79.70;;;;;;5053587;28;20810;-71
2023/09/18 10:47:07;;;;;;;5.38;3.30;;;21.90;79.50;;;;;;5053952;28;20055;-70
2023/09/18 10:49:35;;;;;;;3.95;2.67;;;22.00;79.20;;;;;;5054881;28;20117;-70
2023/09/18 10:52:03;;;;;;;3.63;3.28;;;22.10;79.00;;;;;;5057933;28;20110;-72
2023/09/18 10:54:31;;;;;;;2.90;2.40;;;22.10;78.70;;;;;;5050397;28;20122;-70
2023/09/18 10:56:58;;;;;;;3.67;2.92;;;22.20;78.70;;;;;;5046728;28;20036;-70
2023/09/18 10:59:24;;;;;;;3.00;2.67;;;22.20;78.50;;;;;;5045770;28;20039;-69
2023/09/18 11:01:53;;;;;;;3.75;2.78;;;22.30;78.40;;;;;;5056657;28;20091;-70
2023/09/18 11:04:20;;;;;;;3.22;2.38;;;22.40;78.30;;;;;;5054850;28;20425;-69
2023/09/18 11:06:55;;;;;;;4.00;2.67;;;22.50;78.00;;;;;;5056718;28;20033;-69
2023/09/18 11:09:33;;;;;;;5.80;2.83;;;22.70;78.00;;;;;;5059325;28;20094;-68
2023/09/18 11:12:03;;;;;;;3.10;2.10;;;22.80;77.90;;;;;;5057255;28;20063;-68
2023/09/18 11:14:49;;;;;;;4.70;2.17;;;22.90;77.70;;;;;;5058099;28;20120;-69
2023/09/18 11:17:33;;;;;;;1.98;1.67;;;23.00;77.40;;;;;;5064022;28;20037;-70
2023/09/18 11:20:23;;;;;;;5.38;2.47;;;23.10;77.40;;;;;;5059230;28;20127;-69
2023/09/18 11:22:55;;;;;;;3.65;1.73;;;23.20;77.20;;;;;;5056231;28;20032;-70
2023/09/18 11:25:34;;;;;;;5.60;2.63;;;23.20;77.20;;;;;;5055553;28;20265;-70
2023/09/18 11:28:02;;;;;;;5.13;2.88;;;23.20;77.00;;;;;;5056509;28;20104;-69
2023/09/18 11:30:36;;;;;;;4.90;2.20;;;23.20;77.00;;;;;;5054929;28;20047;-70
2023/09/18 11:33:04;;;;;;;4.53;1.83;;;23.20;76.70;;;;;;5057681;28;20050;-70
2023/09/18 11:35:32;;;;;;;2.17;1.55;;;23.20;76.50;;;;;;5054332;28;20129;-69
2023/09/18 11:38:10;;;;;;;2.90;1.50;;;23.10;76.10;;;;;;5055851;28;20406;-72
2023/09/18 11:40:38;;;;;;;2.10;1.58;;;23.00;75.80;;;;;;5055999;28;20439;-69
2023/09/18 11:43:26;;;;;;;5.47;2.65;;;23.00;75.90;;;;;;5058814;28;20115;-69
2023/09/18 11:45:55;;;;;;;2.25;1.52;;;22.90;75.50;;;;;;5052508;28;20078;-69
2023/09/18 11:48:27;;;;;;;2.80;1.65;;;22.90;75.70;;;;;;5053085;28;20024;-71
2023/09/18 11:50:54;;;;;;;;;;;22.80;75.40;;;;;;5055486;28;20198;-69
2023/09/18 11:53:26;;;;;;;2.88;1.48;;;22.80;75.50;;;;;;5053999;28;19919;-71
2023/09/18 11:55:52;;;;;;;2.75;1.35;;;22.70;75.40;;;;;;5053502;28;20218;-69
2023/09/18 11:58:23;;;;;;;5.35;1.30;;;22.80;75.30;;;;;;5054569;28;20467;-72
2023/09/18 12:00:50;;;;;;;4.07;1.27;;;22.80;75.00;;;;;;5053715;28;20060;-69
2023/09/18 12:03:24;;;;;;;4.65;1.58;;;22.80;74.70;;;;;;5054124;28;20248;-70
2023/09/18 12:06:05;;;;;;;2.65;1.38;;;22.90;74.50;;;;;;5050928;28;20044;-71
2023/09/18 12:08:31;;;;;;;1.92;1.40;;;23.00;74.20;;;;;;5055125;28;20036;-70
2023/09/18 12:10:58;;;;;;;1.50;1.23;;;23.20;74.10;;;;;;5056461;28;20043;-68
2023/09/18 12:13:27;;;;;;;4.88;1.33;;;23.30;73.60;;;;;;5048128;28;20086;-72
2023/09/18 12:16:06;;;;;;;2.05;1.10;;;23.50;73.20;;;;;;5048524;28;20119;-71
2023/09/18 12:18:37;;;;;;;3.30;1.30;;;23.60;72.60;;;;;;5052203;28;20033;-71
2023/09/18 12:21:07;;;;;;;1.75;1.33;;;23.80;72.60;;;;;;5055257;28;20036;-72
2023/09/18 12:23:42;;;;;;;1.98;1.50;;;23.80;72.00;;;;;;5053182;28;20134;-71
2023/09/18 12:26:13;;;;;;;5.00;1.70;;;23.90;72.00;;;;;;5052795;28;20595;-70
2023/09/18 12:28:43;;;;;;;2.72;1.20;;;23.90;71.70;;;;;;5055109;28;20032;-70
2023/09/18 12:31:13;;;;;;;1.33;1.02;;;24.00;71.60;;;;;;5055380;28;20030;-69
2023/09/18 12:33:41;;;;;;;2.65;1.25;;;24.10;71.40;;;;;;5053995;28;20232;-71
2023/09/18 12:36:08;;;;;;;1.80;1.17;;;24.10;71.10;;;;;;5050331;28;20068;-70
2023/09/18 12:38:40;;;;;;;;;;;24.20;70.70;;;;;;5057957;28;20218;-70
2023/09/18 12:41:06;;;;;;;2.00;1.10;;;24.30;70.70;;;;;;5054751;28;20494;-70
2023/09/18 12:43:43;;;;;;;3.63;0.90;;;24.40;70.90;;;;;;5048922;28;20029;-70
2023/09/18 12:46:10;;;;;;;2.45;1.10;;;24.50;70.50;;;;;;5059547;28;20041;-70
2023/09/18 12:48:45;;;;;;;3.22;1.02;;;24.50;70.20;;;;;;5058313;28;20066;-71